createdAt,value
2023-04-20T00:02:26.689Z,1.93
2023-04-20T00:08:20.218Z,1.53
2023-04-20T00:14:15.106Z,1.83
2023-04-20T00:20:10.222Z,2.13
2023-04-20T00:26:03.707Z,2.13
2023-04-20T00:31:58.669Z,2.30
2023-04-20T00:37:52.141Z,2.70
2023-04-20T00:43:52.843Z,2.50
2023-04-20T00:49:47.700Z,4.53
2023-04-20T00:55:43.838Z,3.37
2023-04-20T01:01:39.188Z,2.40
2023-04-20T01:07:35.506Z,2.20
2023-04-20T01:13:29.176Z,2.30
2023-04-20T01:19:23.092Z,2.30
2023-04-20T01:25:18.813Z,1.77
2023-04-20T01:31:13.690Z,2.63
2023-04-20T01:37:08.568Z,2.63
2023-04-20T01:43:03.637Z,2.50
2023-04-20T01:48:57.129Z,2.23
2023-04-20T01:54:50.613Z,2.60
2023-04-20T02:00:46.024Z,2.83
2023-04-20T02:06:39.524Z,2.30
2023-04-20T02:12:35.988Z,2.40
2023-04-20T02:18:33.328Z,2.70
2023-04-20T02:24:27.852Z,2.73
2023-04-20T02:30:22.240Z,2.50
2023-04-20T02:36:17.235Z,2.60
2023-04-20T02:42:10.920Z,2.00
2023-04-20T02:48:05.000Z,2.47
2023-04-20T02:53:59.871Z,2.37
2023-04-20T02:59:54.885Z,2.77
2023-04-20T03:05:52.780Z,2.73
2023-04-20T03:11:48.221Z,2.40
2023-04-20T03:17:53.681Z,2.50
2023-04-20T03:23:46.966Z,3.07
2023-04-20T03:29:41.750Z,2.83
2023-04-20T03:35:39.654Z,3.07
2023-04-20T03:41:33.218Z,2.60
2023-04-20T03:47:27.934Z,3.10
2023-04-20T03:53:21.235Z,3.60
2023-04-20T03:59:15.307Z,2.67
2023-04-20T04:05:13.419Z,3.07
2023-04-20T04:11:06.969Z,3.20
2023-04-20T04:17:00.414Z,2.77
2023-04-20T04:22:55.894Z,3.40
2023-04-20T04:28:58.480Z,3.63
2023-04-20T04:34:53.060Z,3.73
2023-04-20T04:40:48.217Z,3.50
2023-04-20T04:46:43.150Z,3.60
2023-04-20T04:52:36.566Z,3.57
2023-04-20T04:58:31.369Z,3.67
2023-04-20T05:04:25.102Z,3.57
2023-04-20T05:10:18.500Z,3.60
2023-04-20T05:16:13.158Z,3.73
2023-04-20T05:22:06.343Z,4.07
2023-04-20T05:28:00.068Z,4.17
2023-04-20T05:33:54.568Z,4.03
2023-04-20T05:39:48.065Z,4.80
2023-04-20T05:45:41.605Z,3.77
2023-04-20T05:51:36.148Z,3.60
2023-04-20T05:57:29.606Z,4.50
2023-04-20T06:03:22.770Z,3.93
2023-04-20T06:09:18.088Z,3.67
2023-04-20T06:15:11.871Z,4.40
2023-04-20T06:21:05.812Z,4.50
2023-04-20T06:27:00.253Z,4.17
2023-04-20T06:32:53.483Z,4.00
2023-04-20T06:38:47.076Z,4.27
2023-04-20T06:44:41.972Z,4.43
2023-04-20T06:50:36.650Z,4.30
2023-04-20T06:56:30.743Z,4.40
2023-04-20T07:02:25.659Z,4.40
2023-04-20T07:08:19.632Z,4.50
2023-04-20T07:14:12.685Z,4.90
2023-04-20T07:20:09.019Z,4.80
2023-04-20T07:26:02.124Z,4.83
2023-04-20T07:31:55.669Z,4.07
2023-04-20T07:37:50.135Z,5.40
2023-04-20T07:43:45.100Z,4.93
2023-04-20T07:49:40.662Z,4.67
2023-04-20T07:55:35.686Z,5.47
2023-04-20T08:01:29.183Z,4.60
2023-04-20T08:07:24.172Z,4.90
2023-04-20T08:13:18.639Z,4.97
2023-04-20T08:19:11.732Z,5.40
2023-04-20T08:25:05.076Z,6.00
2023-04-20T08:31:00.014Z,4.93
2023-04-20T08:36:53.252Z,4.80
2023-04-20T08:42:46.883Z,5.77
2023-04-20T08:48:46.474Z,5.20
2023-04-20T08:54:55.320Z,5.07
2023-04-20T09:00:50.642Z,5.87
2023-04-20T09:06:47.228Z,5.73
2023-04-20T09:12:44.244Z,5.47
2023-04-20T09:18:37.999Z,5.00
2023-04-20T09:24:34.464Z,5.83
2023-04-20T09:30:38.761Z,5.30
2023-04-20T09:36:38.773Z,5.70
2023-04-20T09:42:37.517Z,5.53
2023-04-20T09:48:32.216Z,6.40
2023-04-20T09:54:25.492Z,5.60
2023-04-20T10:05:22.507Z,6.00
2023-04-20T10:11:27.944Z,5.70
2023-04-20T10:17:32.196Z,6.10
2023-04-20T10:23:27.176Z,6.47
2023-04-20T10:29:25.804Z,5.77
2023-04-20T10:35:19.350Z,6.43
2023-04-20T10:41:14.485Z,6.00
2023-04-20T10:47:07.694Z,6.37
2023-04-20T10:53:01.139Z,5.70
2023-04-20T10:58:55.865Z,5.83
2023-04-20T11:04:49.227Z,5.23
2023-04-20T11:10:43.698Z,6.70
2023-04-20T11:22:35.301Z,5.57
2023-04-20T11:28:34.527Z,5.70
2023-04-20T11:34:29.312Z,6.70
2023-04-20T11:40:22.836Z,6.33
2023-04-20T11:46:17.957Z,5.73
2023-04-20T11:52:12.450Z,5.93
2023-04-20T11:58:05.788Z,6.57
2023-04-20T12:04:02.066Z,6.13
2023-04-20T12:09:56.982Z,6.70
2023-04-20T12:15:50.156Z,6.57
2023-04-20T12:21:43.266Z,7.17
2023-04-20T12:27:38.038Z,7.50
2023-04-20T12:33:31.453Z,7.57
2023-04-20T12:39:25.036Z,8.80
2023-04-20T12:45:19.561Z,7.87
2023-04-20T12:51:12.984Z,8.07
2023-04-20T12:57:06.065Z,9.17
2023-04-20T13:03:00.882Z,8.60
2023-04-20T13:08:54.208Z,8.47
2023-04-20T13:14:47.344Z,8.07
2023-04-20T13:20:42.006Z,8.43
2023-04-20T13:26:36.057Z,8.00
2023-04-20T13:32:29.175Z,8.63
2023-04-20T13:38:23.721Z,8.90
2023-04-20T13:44:17.493Z,9.30
2023-04-20T13:50:11.885Z,9.30
2023-04-20T13:56:06.728Z,10.07
2023-04-20T14:01:59.836Z,9.30
2023-04-20T14:07:52.918Z,8.97
2023-04-20T14:13:47.607Z,8.50
2023-04-20T14:19:40.953Z,9.67
2023-04-20T14:25:34.125Z,8.10
2023-04-20T14:31:28.839Z,9.80
2023-04-20T14:37:23.409Z,9.13
2023-04-20T14:43:16.730Z,8.90
2023-04-20T14:49:11.528Z,10.13
2023-04-20T14:55:04.922Z,9.60
2023-04-20T15:00:58.199Z,8.90
2023-04-20T15:06:52.666Z,10.10
2023-04-20T15:12:45.982Z,10.20
2023-04-20T15:18:39.540Z,9.47
2023-04-20T15:24:34.202Z,11.53
2023-04-20T15:30:27.556Z,9.90
2023-04-20T15:36:21.145Z,9.17
2023-04-20T15:42:15.842Z,7.90
2023-04-20T15:48:09.143Z,7.27
2023-04-20T15:54:02.244Z,7.93
2023-04-20T15:59:56.713Z,8.10
2023-04-20T16:05:50.805Z,8.73
2023-04-20T16:11:43.900Z,7.83
2023-04-20T16:17:38.601Z,8.10
2023-04-20T16:23:32.058Z,8.60
2023-04-20T16:29:25.225Z,7.40
2023-04-20T16:35:19.697Z,7.50
2023-04-20T16:41:12.795Z,8.40
2023-04-20T16:47:06.146Z,6.93
2023-04-20T16:53:00.965Z,7.63
2023-04-20T16:58:54.417Z,8.13
2023-04-20T17:04:47.588Z,7.87
2023-04-20T17:10:42.073Z,8.97
2023-04-20T17:16:35.302Z,8.27
2023-04-20T17:22:28.781Z,7.40
2023-04-20T17:28:23.420Z,7.90
2023-04-20T17:34:17.038Z,7.87
2023-04-20T17:40:11.064Z,9.17
2023-04-20T17:46:05.637Z,9.50
2023-04-20T17:51:58.934Z,8.73
2023-04-20T17:57:52.306Z,8.00
2023-04-20T18:03:48.454Z,8.13
2023-04-20T18:09:43.217Z,7.60
2023-04-20T18:15:36.623Z,8.27
2023-04-20T18:21:31.443Z,9.80
2023-04-20T18:27:24.614Z,8.40
2023-04-20T18:33:17.767Z,8.63
2023-04-20T18:39:12.522Z,7.77
2023-04-20T18:45:07.171Z,8.47
2023-04-20T18:51:01.746Z,9.60
2023-04-20T18:56:56.632Z,8.43
2023-04-20T19:02:49.825Z,8.60
2023-04-20T19:08:43.213Z,8.17
2023-04-20T19:14:37.887Z,8.40
2023-04-20T19:20:31.173Z,8.00
2023-04-20T19:26:25.077Z,7.17
2023-04-20T19:32:19.891Z,11.03
2023-04-20T19:38:13.137Z,7.80
2023-04-20T19:44:06.509Z,7.70
2023-04-20T19:50:03.612Z,8.50
2023-04-20T19:55:57.313Z,9.00
2023-04-20T20:01:51.014Z,7.43
2023-04-20T20:07:45.660Z,7.50
2023-04-20T20:13:38.992Z,7.27
2023-04-20T20:19:32.361Z,7.90
2023-04-20T20:25:27.283Z,7.57
2023-04-20T20:31:20.439Z,7.60
2023-04-20T20:37:13.824Z,8.90
2023-04-20T20:43:08.805Z,7.77
2023-04-20T20:49:01.948Z,7.93
2023-04-20T20:54:55.318Z,8.13
2023-04-20T21:00:49.859Z,8.47
2023-04-20T21:06:43.006Z,9.13
2023-04-20T21:12:36.266Z,8.20
2023-04-20T21:18:31.062Z,8.40
2023-04-20T21:24:24.401Z,7.90
2023-04-20T21:30:17.649Z,8.30
2023-04-20T21:36:12.353Z,8.73
2023-04-20T21:42:05.746Z,7.60
2023-04-20T21:47:58.950Z,8.17
2023-04-20T21:53:53.741Z,9.10
2023-04-20T21:59:47.072Z,8.80
2023-04-20T22:05:40.220Z,8.00
2023-04-20T22:11:36.796Z,8.27
2023-04-20T22:17:31.086Z,8.50
2023-04-20T22:23:24.456Z,8.07
2023-04-20T22:29:19.192Z,7.90
2023-04-20T22:35:12.717Z,8.60
2023-04-20T22:41:06.297Z,8.13
2023-04-20T22:47:01.403Z,8.67
2023-04-20T22:52:54.916Z,9.50
2023-04-20T22:58:48.049Z,8.57
2023-04-20T23:04:43.821Z,8.77
2023-04-20T23:10:37.148Z,8.33
2023-04-20T23:16:30.516Z,8.40
2023-04-20T23:22:26.117Z,8.97
2023-04-20T23:28:19.356Z,9.40
2023-04-20T23:34:12.739Z,9.50
2023-04-20T23:40:10.361Z,8.57
2023-04-20T23:46:03.802Z,8.93
2023-04-20T23:51:57.267Z,9.07
2023-04-20T23:57:52.826Z,8.27
